Погода Алегретена неделю

Риу-Гранди-ду-Сул, Бразилия

07 - 13 февраля
  • 07февраля
    Сегодня
    +20°
    +36°
    Ясно и безоблачно
    ВремяПогодаТемператураВлажностьДавлениеВетер, м/сВероятность осадков
    00:00Ясно и безоблачно+21°C47 %750 мм2.3 м/с5 %
    03:00Ясно и безоблачно+21°C55 %749 мм2.3 м/с5 %
    06:00Ясно и безоблачно+19°C65 %750 мм2.3 м/с5 %
    09:00Ясно и безоблачно+26°C45 %751 мм2.1 м/с5 %
    12:00Ясно и безоблачно+33°C26 %751 мм1.6 м/с5 %
    15:00Ясно и безоблачно+35°C21 %749 мм1.3 м/с5 %
    18:00Ясно и безоблачно+36°C20 %748 мм1.8 м/с5 %
    21:00Ясно и безоблачно+29°C33 %749 мм2.2 м/с5 %
  • 08февраля
    Среда
    +24°
    +38°
    Облачно с прояснениями
    ВремяПогодаТемператураВлажностьДавлениеВетер, м/сВероятность осадков
    00:00Ясно и безоблачно+26°C38 %750 мм3.9 м/с5 %
    03:00Ясно и безоблачно+24°C51 %749 мм3.5 м/с4 %
    06:00Ясно и безоблачно+21°C62 %749 мм2.4 м/с5 %
    09:00Ясно и безоблачно+27°C47 %750 мм2.3 м/с1 %
    12:00Облачно с прояснениями+35°C29 %749 мм3.4 м/с2 %
    15:00Облачно с прояснениями+37°C23 %748 мм0.5 м/с5 %
    18:00Небольшая облачность+36°C22 %746 мм1.5 м/с3 %
    21:00Облачно с прояснениями+29°C38 %748 мм6.3 м/с14 %
  • 09февраля
    Четверг
    +22°
    +38°
    Небольшая облачность
    ВремяПогодаТемператураВлажностьДавлениеВетер, м/сВероятность осадков
    00:00Облачно с прояснениями+28°C41 %749 мм6.3 м/с13 %
    03:00Пасмурно, сплошная облачность+25°C53 %749 мм2.7 м/с23 %
    06:00Небольшая облачность+24°C56 %749 мм3.6 м/с30 %
    09:00Практически безоблачно+28°C43 %750 мм2.4 м/с11 %
    12:00Практически безоблачно+34°C29 %750 мм3.8 м/с10 %
    15:00Небольшая облачность+38°C26 %749 мм1.6 м/с15 %
    18:00Практически безоблачно+31°C36 %748 мм3.1 м/с25 %
    21:00Ясно и безоблачно+27°C47 %749 мм2.0 м/с25 %
  • 10февраля
    Пятница
    +23°
    +38°
    Практически безоблачно
    ВремяПогодаТемператураВлажностьДавлениеВетер, м/сВероятность осадков
    00:00Ясно и безоблачно+25°C56 %750 мм3.0 м/с14 %
    03:00Ясно и безоблачно+24°C60 %750 мм2.9 м/с8 %
    06:00Ясно и безоблачно+22°C67 %750 мм1.7 м/с8 %
    09:00Ясно и безоблачно+28°C46 %751 мм2.1 м/с3 %
    12:00Ясно и безоблачно+34°C32 %751 мм0.7 м/с5 %
    15:00Практически безоблачно+37°C26 %749 мм0.6 м/с5 %
    18:00Небольшая облачность+37°C24 %747 мм2.1 м/с9 %
    21:00Практически безоблачно+33°C29 %748 мм4.1 м/с10 %
  • 11февраля
    Суббота
    +24°
    +39°
    Ясно и безоблачно
    ВремяПогодаТемператураВлажностьДавлениеВетер, м/сВероятность осадков
    00:00Ясно и безоблачно+30°C37 %749 мм4.5 м/с5 %
    03:00Ясно и безоблачно+27°C51 %749 мм3.8 м/с5 %
    06:00Ясно и безоблачно+24°C61 %749 мм2.4 м/с5 %
    09:00Ясно и безоблачно+29°C45 %750 мм3.0 м/с5 %
    12:00Ясно и безоблачно+36°C27 %749 мм2.1 м/с5 %
    15:00Ясно и безоблачно+39°C20 %748 мм2.4 м/с5 %
    18:00Ясно и безоблачно+38°C20 %746 мм4.6 м/с5 %
    21:00Ясно и безоблачно+34°C27 %746 мм4.0 м/с5 %
Мы используем cookies
Соглашаюсь